createdAt,value
2022-12-31T00:00:39.054Z,80.53
2022-12-31T00:05:40.436Z,80.57
2022-12-31T00:10:41.949Z,80.56
2022-12-31T00:15:44.213Z,80.44
2022-12-31T00:20:45.557Z,80.36
2022-12-31T00:25:46.882Z,80.66
2022-12-31T00:30:48.256Z,80.93
2022-12-31T00:35:49.599Z,80.91
2022-12-31T00:40:50.940Z,80.77
2022-12-31T00:45:52.314Z,80.89
2022-12-31T00:50:55.150Z,80.81
2022-12-31T00:56:01.405Z,80.45
2022-12-31T01:01:26.382Z,80.57
2022-12-31T01:06:27.952Z,80.50
2022-12-31T01:11:29.721Z,80.45
2022-12-31T01:16:38.672Z,80.31
2022-12-31T01:21:41.260Z,79.96
2022-12-31T01:26:43.345Z,79.99
2022-12-31T01:31:44.794Z,80.15
2022-12-31T01:36:46.331Z,80.03
2022-12-31T01:41:47.973Z,79.97
2022-12-31T01:46:58.230Z,79.73
2022-12-31T01:52:09.022Z,79.67
2022-12-31T01:57:11.519Z,79.65
2022-12-31T02:02:15.577Z,79.52
2022-12-31T02:07:16.962Z,79.37
2022-12-31T02:12:18.339Z,79.32
2022-12-31T02:17:37.122Z,79.00
2022-12-31T02:22:57.898Z,78.76
2022-12-31T02:28:34.207Z,78.54
2022-12-31T02:33:41.966Z,78.22
2022-12-31T02:38:46.431Z,77.86
2022-12-31T02:43:47.842Z,77.70
2022-12-31T02:48:57.551Z,77.34
2022-12-31T02:54:21.693Z,77.12
2022-12-31T03:00:11.863Z,76.82
2022-12-31T03:05:15.911Z,76.73
2022-12-31T03:10:17.467Z,76.21
2022-12-31T03:15:22.639Z,75.78
2022-12-31T03:20:49.404Z,75.52
2022-12-31T03:25:51.179Z,75.70
2022-12-31T03:31:03.160Z,75.15
2022-12-31T03:36:07.323Z,74.88
2022-12-31T03:41:10.838Z,74.39
2022-12-31T03:46:12.228Z,74.27
2022-12-31T03:51:13.631Z,74.28
2022-12-31T03:56:14.955Z,73.84
2022-12-31T04:01:16.408Z,73.66
2022-12-31T04:06:17.872Z,73.75
2022-12-31T04:11:21.131Z,73.65
2022-12-31T04:16:22.705Z,73.72
2022-12-31T04:21:25.256Z,73.60
2022-12-31T04:26:28.976Z,73.12
2022-12-31T04:31:30.298Z,73.27
2022-12-31T04:36:31.910Z,73.19
2022-12-31T04:41:33.309Z,73.57
2022-12-31T04:46:34.757Z,73.36
2022-12-31T04:51:36.673Z,73.46
2022-12-31T04:56:38.100Z,73.28
2022-12-31T05:01:39.603Z,73.00
2022-12-31T05:06:41.048Z,73.19
2022-12-31T05:11:42.411Z,72.59
2022-12-31T05:16:43.784Z,72.68
2022-12-31T05:22:05.119Z,72.44
2022-12-31T05:27:06.463Z,72.38
2022-12-31T05:32:07.788Z,72.09
2022-12-31T05:37:09.339Z,72.00
2022-12-31T05:42:10.698Z,71.94
2022-12-31T05:47:12.058Z,71.76
2022-12-31T05:52:13.991Z,71.65
2022-12-31T05:57:15.458Z,71.75
2022-12-31T06:02:16.839Z,71.26
2022-12-31T06:07:18.248Z,71.34
2022-12-31T06:12:19.632Z,71.12
2022-12-31T06:17:22.323Z,70.99
2022-12-31T06:22:23.741Z,70.81
2022-12-31T06:27:25.091Z,70.79
2022-12-31T06:32:26.407Z,70.87
2022-12-31T06:37:28.057Z,70.70
2022-12-31T06:42:33.374Z,70.55
2022-12-31T06:47:34.779Z,70.47
2022-12-31T06:52:36.284Z,70.28
2022-12-31T06:57:37.835Z,70.22
2022-12-31T07:02:54.200Z,69.87
2022-12-31T07:08:12.562Z,69.83
2022-12-31T07:13:31.999Z,69.63
2022-12-31T07:18:45.206Z,69.59
2022-12-31T07:23:46.860Z,69.30
2022-12-31T07:29:05.852Z,68.84
2022-12-31T07:34:31.121Z,68.63
2022-12-31T07:39:45.439Z,68.78
2022-12-31T07:45:07.337Z,68.44
2022-12-31T07:55:34.513Z,68.18
2022-12-31T08:00:35.958Z,67.94
2022-12-31T08:05:50.293Z,67.87
2022-12-31T08:11:04.763Z,67.81
2022-12-31T08:16:11.183Z,67.46
2022-12-31T08:21:50.031Z,67.27
2022-12-31T08:27:06.303Z,66.90
2022-12-31T08:32:23.851Z,66.62
2022-12-31T08:37:25.125Z,66.38
2022-12-31T08:42:42.176Z,66.47
2022-12-31T08:48:17.293Z,66.35
2022-12-31T08:53:19.038Z,66.44
2022-12-31T08:58:41.725Z,66.24
2022-12-31T09:04:06.164Z,66.31
2022-12-31T09:09:16.638Z,65.89
2022-12-31T09:14:28.583Z,66.03
2022-12-31T09:19:29.963Z,65.82
2022-12-31T09:24:31.610Z,65.79
2022-12-31T09:29:46.083Z,65.43
2022-12-31T09:34:57.842Z,65.22
2022-12-31T09:40:16.000Z,65.13
2022-12-31T09:45:34.852Z,65.19
2022-12-31T09:50:36.253Z,64.86
2022-12-31T09:55:51.617Z,64.72
2022-12-31T10:01:03.855Z,64.71
2022-12-31T10:06:17.934Z,64.37
2022-12-31T10:12:03.825Z,64.05
2022-12-31T10:17:31.632Z,64.08
2022-12-31T10:23:14.937Z,63.93
2022-12-31T10:28:56.268Z,63.78
2022-12-31T10:34:26.865Z,63.47
2022-12-31T10:39:43.074Z,63.27
2022-12-31T10:45:15.648Z,63.33
2022-12-31T10:50:29.098Z,62.86
2022-12-31T10:56:09.461Z,62.68
2022-12-31T11:01:28.045Z,62.54
2022-12-31T11:06:52.552Z,62.29
2022-12-31T11:12:04.867Z,62.25
2022-12-31T11:17:43.159Z,62.21
2022-12-31T11:23:05.920Z,62.28
2022-12-31T11:28:36.304Z,62.08
2022-12-31T11:34:10.490Z,61.99
2022-12-31T11:39:30.950Z,62.07
2022-12-31T11:44:46.232Z,61.66
2022-12-31T11:49:47.538Z,61.17
2022-12-31T11:55:11.071Z,61.16
2022-12-31T12:00:20.674Z,61.07
2022-12-31T12:05:25.279Z,60.88
2022-12-31T12:10:36.594Z,60.68
2022-12-31T12:15:39.234Z,60.67
2022-12-31T12:20:44.078Z,60.40
2022-12-31T12:25:45.462Z,60.01
2022-12-31T12:30:55.328Z,59.69
2022-12-31T12:36:11.237Z,59.56
2022-12-31T12:41:25.301Z,59.32
2022-12-31T12:46:47.783Z,59.00
2022-12-31T12:52:26.045Z,58.83
2022-12-31T12:58:02.583Z,58.64
2022-12-31T13:03:27.567Z,58.40
2022-12-31T13:09:01.151Z,58.19
2022-12-31T13:14:27.171Z,58.26
2022-12-31T13:19:43.095Z,58.13
2022-12-31T13:25:07.574Z,58.24
2022-12-31T13:30:21.209Z,58.08
2022-12-31T13:35:28.044Z,58.07
2022-12-31T13:40:56.840Z,58.09
2022-12-31T13:46:10.755Z,58.15
2022-12-31T13:51:34.735Z,58.08
2022-12-31T13:56:38.872Z,57.90
2022-12-31T14:01:54.800Z,57.50
2022-12-31T14:07:19.365Z,57.43
2022-12-31T14:12:40.135Z,57.53
2022-12-31T14:17:51.793Z,57.59
2022-12-31T14:23:16.015Z,57.50
2022-12-31T14:28:23.804Z,57.67
2022-12-31T14:33:38.899Z,57.59
2022-12-31T14:38:54.817Z,57.78
2022-12-31T14:44:32.900Z,57.62
2022-12-31T14:49:48.044Z,57.61
2022-12-31T14:55:21.921Z,57.70
2022-12-31T15:00:36.520Z,57.61
2022-12-31T15:05:38.513Z,57.75
2022-12-31T15:11:01.372Z,57.90
2022-12-31T15:16:23.578Z,57.78
2022-12-31T15:21:40.361Z,57.74
2022-12-31T15:26:49.589Z,57.68
2022-12-31T15:31:51.802Z,57.60
2022-12-31T15:36:57.256Z,57.22
2022-12-31T15:47:41.511Z,57.00
2022-12-31T15:52:47.893Z,57.14
2022-12-31T15:57:50.518Z,57.04
2022-12-31T16:02:54.611Z,57.09
2022-12-31T16:07:58.198Z,57.49
2022-12-31T16:12:59.884Z,57.27
2022-12-31T16:18:09.864Z,57.46
2022-12-31T16:23:25.758Z,57.50
2022-12-31T16:28:32.524Z,57.59
2022-12-31T16:33:34.249Z,58.12
2022-12-31T16:38:37.166Z,57.83
2022-12-31T16:43:40.137Z,57.93
2022-12-31T16:48:46.979Z,57.75
2022-12-31T16:53:49.500Z,57.77
2022-12-31T16:58:59.183Z,57.88
2022-12-31T17:04:04.788Z,57.61
2022-12-31T17:09:31.339Z,57.57
2022-12-31T17:14:47.996Z,57.56
2022-12-31T17:19:55.488Z,57.72
2022-12-31T17:25:02.974Z,57.40
2022-12-31T17:30:37.607Z,57.23
2022-12-31T17:35:42.109Z,57.44
2022-12-31T17:40:53.040Z,57.09
2022-12-31T17:45:54.614Z,57.03
2022-12-31T17:50:58.338Z,57.44
2022-12-31T17:56:03.400Z,56.93
2022-12-31T18:01:06.374Z,56.92
2022-12-31T18:06:16.549Z,56.85
2022-12-31T18:11:22.132Z,56.99
2022-12-31T18:16:23.675Z,57.04
2022-12-31T18:21:34.061Z,57.10
2022-12-31T18:26:35.428Z,57.30
2022-12-31T18:31:37.361Z,57.45
2022-12-31T18:36:39.322Z,57.36
2022-12-31T18:41:49.369Z,57.09
2022-12-31T18:46:50.801Z,57.24
2022-12-31T18:51:54.119Z,57.21
2022-12-31T18:56:57.342Z,57.13
2022-12-31T19:01:58.840Z,56.91
2022-12-31T19:07:00.273Z,56.92
2022-12-31T19:12:01.658Z,56.65
2022-12-31T19:22:03.322Z,56.49
2022-12-31T19:27:04.671Z,56.19
2022-12-31T19:32:06.030Z,56.04
2022-12-31T19:37:13.631Z,56.14
2022-12-31T19:42:15.494Z,55.82
2022-12-31T19:47:16.875Z,55.86
2022-12-31T19:52:18.189Z,55.87
2022-12-31T19:57:19.571Z,55.75
2022-12-31T20:02:21.054Z,55.92
2022-12-31T20:07:27.121Z,56.01
2022-12-31T20:12:28.988Z,56.05
2022-12-31T20:17:30.607Z,56.09
2022-12-31T20:22:32.199Z,56.12
2022-12-31T20:27:33.726Z,56.26
2022-12-31T20:32:35.676Z,56.33
2022-12-31T20:37:37.052Z,56.14
2022-12-31T20:42:40.538Z,56.29
2022-12-31T20:47:41.890Z,56.55
2022-12-31T20:52:44.147Z,56.43
2022-12-31T20:57:45.605Z,56.34
2022-12-31T21:02:56.391Z,56.54
2022-12-31T21:08:01.918Z,56.24
2022-12-31T21:13:03.260Z,56.21
2022-12-31T21:18:04.833Z,56.41
2022-12-31T21:23:06.257Z,56.08
2022-12-31T21:28:07.851Z,56.25
2022-12-31T21:33:09.223Z,55.98
2022-12-31T21:38:10.562Z,56.09
2022-12-31T21:43:12.454Z,56.56
2022-12-31T21:48:21.759Z,56.28
2022-12-31T21:53:30.447Z,56.35
2022-12-31T21:58:41.082Z,56.35
2022-12-31T22:03:43.179Z,56.74
2022-12-31T22:08:45.957Z,56.57
2022-12-31T22:13:48.040Z,56.80
2022-12-31T22:18:50.151Z,56.96
2022-12-31T22:23:53.513Z,56.99
2022-12-31T22:28:59.039Z,57.08
2022-12-31T22:34:01.812Z,57.06
2022-12-31T22:39:03.237Z,57.22
2022-12-31T22:44:05.120Z,57.48
2022-12-31T22:49:06.544Z,57.67
2022-12-31T22:54:09.412Z,57.55
2022-12-31T22:59:10.938Z,57.67
2022-12-31T23:04:12.526Z,57.58
2022-12-31T23:09:34.758Z,58.01
2022-12-31T23:14:55.332Z,57.96
2022-12-31T23:20:15.137Z,58.12
2022-12-31T23:25:16.693Z,58.38
2022-12-31T23:30:18.070Z,58.44
2022-12-31T23:35:19.435Z,58.72
2022-12-31T23:40:22.029Z,58.97
2022-12-31T23:45:26.965Z,59.00
2022-12-31T23:50:31.160Z,59.08
2022-12-31T23:55:32.857Z,59.27
